Albany, New York
Traffic Map
Current Weather Conditions
Albany, New York
Few Clouds
Few Clouds
10°
Feels Like: 10°
Wind Chill: 10° Ceiling: Unl
Heat Index: 10° Visibility: 10mi
Dew Point: Wind: 10mph
Humidity: 52% Direction: 330° (NNW)
Pressure: 30.29in Gusts: 0mph
Raw Report DataKALB 191351Z 33009KT 290V360 10SM FEW030 FEW250 10/01 A3029 RMK AO2 SLP259 T01000006
Traffic Incident Summary
Active as of:
Severity:
Category:
InformationThere was an issue retrieving the traffic information for this location. Please try a different location or try again shortly.
Advertisements
At Last! Intellicast now available for iPhone and Android